createdAt,value
2019-05-20T00:00:14.129Z,60.45
2019-05-20T00:02:40.358Z,60.38
2019-05-20T00:05:07.942Z,60.21
2019-05-20T00:07:34.150Z,60.33
2019-05-20T00:10:00.289Z,60.50
2019-05-20T00:12:26.432Z,60.61
2019-05-20T00:14:52.584Z,60.89
2019-05-20T00:17:18.681Z,60.78
2019-05-20T00:19:44.875Z,61.04
2019-05-20T00:22:11.049Z,61.44
2019-05-20T00:24:37.201Z,61.66
2019-05-20T00:27:03.590Z,61.73
2019-05-20T00:29:29.834Z,61.67
2019-05-20T00:31:56.065Z,61.69
2019-05-20T00:34:34.611Z,61.53
2019-05-20T00:36:51.453Z,61.56
2019-05-20T00:39:19.622Z,61.65
2019-05-20T00:41:46.087Z,61.91
2019-05-20T00:44:12.271Z,61.90
2019-05-20T00:46:38.432Z,62.39
2019-05-20T00:49:04.688Z,62.72
2019-05-20T00:51:31.020Z,62.88
2019-05-20T00:53:57.256Z,63.30
2019-05-20T00:56:23.610Z,63.32
2019-05-20T00:58:50.046Z,63.32
2019-05-20T01:01:16.308Z,64.13
2019-05-20T01:03:42.549Z,64.23
2019-05-20T01:06:09.792Z,64.04
2019-05-20T01:08:36.043Z,63.95
2019-05-20T01:11:02.266Z,63.93
2019-05-20T01:13:28.367Z,63.76
2019-05-20T01:15:54.637Z,63.68
2019-05-20T01:18:21.287Z,64.22
2019-05-20T01:20:48.145Z,64.58
2019-05-20T01:23:14.955Z,64.94
2019-05-20T01:25:41.839Z,65.60
2019-05-20T01:28:08.747Z,65.46
2019-05-20T01:30:35.552Z,65.37
2019-05-20T01:33:13.319Z,65.62
2019-05-20T01:35:31.023Z,65.67
2019-05-20T01:37:57.779Z,66.03
2019-05-20T01:40:24.686Z,66.14
2019-05-20T01:42:51.526Z,66.26
2019-05-20T01:45:19.414Z,66.29
2019-05-20T01:47:46.601Z,66.40
2019-05-20T01:50:14.438Z,66.05
2019-05-20T01:52:43.986Z,66.06
2019-05-20T01:55:10.997Z,65.89
2019-05-20T01:57:37.116Z,65.78
2019-05-20T02:00:05.641Z,65.93
2019-05-20T02:02:33.499Z,65.79
2019-05-20T02:04:59.778Z,65.98
2019-05-20T02:07:26.112Z,65.97
2019-05-20T02:09:52.222Z,66.02
2019-05-20T02:12:18.453Z,65.88
2019-05-20T02:14:46.454Z,65.76
2019-05-20T02:17:13.679Z,65.69
2019-05-20T02:19:39.814Z,65.67
2019-05-20T02:22:06.192Z,65.62
2019-05-20T02:24:32.462Z,65.65
2019-05-20T02:26:58.709Z,65.85
2019-05-20T02:29:24.911Z,66.33
2019-05-20T02:31:51.079Z,66.85
2019-05-20T02:34:17.336Z,67.11
2019-05-20T02:36:43.432Z,67.08
2019-05-20T02:39:09.756Z,66.98
2019-05-20T02:41:36.114Z,66.72
2019-05-20T02:44:02.256Z,66.52
2019-05-20T02:46:28.489Z,66.49
2019-05-20T02:48:55.771Z,66.39
2019-05-20T02:51:31.179Z,66.64
2019-05-20T02:53:59.025Z,66.47
2019-05-20T02:56:25.241Z,66.64
2019-05-20T02:58:51.367Z,66.65
2019-05-20T03:01:17.586Z,66.75
2019-05-20T03:03:43.692Z,66.91
2019-05-20T03:06:09.907Z,67.28
2019-05-20T03:08:36.105Z,67.68
2019-05-20T03:11:02.355Z,68.29
2019-05-20T03:13:28.606Z,68.28
2019-05-20T03:15:54.889Z,68.68
2019-05-20T03:18:21.243Z,69.12
2019-05-20T03:20:47.434Z,69.61
2019-05-20T03:23:13.654Z,69.97
2019-05-20T03:25:40.059Z,69.90
2019-05-20T03:28:07.486Z,69.89
2019-05-20T03:30:33.611Z,70.08
2019-05-20T03:32:59.846Z,70.04
2019-05-20T03:35:26.050Z,69.83
2019-05-20T03:37:52.298Z,69.88
2019-05-20T03:40:18.402Z,69.92
2019-05-20T03:42:44.622Z,70.09
2019-05-20T03:45:11.235Z,69.84
2019-05-20T03:47:37.481Z,69.77
2019-05-20T03:50:07.077Z,70.00
2019-05-20T03:52:33.305Z,69.74
2019-05-20T03:54:59.403Z,69.96
2019-05-20T03:57:25.666Z,70.19
2019-05-20T03:59:51.879Z,70.37
2019-05-20T04:02:18.408Z,70.20
2019-05-20T04:05:00.674Z,70.06
2019-05-20T04:07:12.642Z,69.94
2019-05-20T04:09:38.750Z,70.05
2019-05-20T04:12:05.199Z,69.88
2019-05-20T04:14:31.324Z,70.24
2019-05-20T04:16:57.696Z,69.99
2019-05-20T04:19:23.809Z,69.75
2019-05-20T04:21:50.025Z,69.79
2019-05-20T04:24:16.333Z,69.41
2019-05-20T04:26:42.523Z,69.77
2019-05-20T04:29:08.719Z,69.78
2019-05-20T04:31:35.036Z,69.97
2019-05-20T04:34:01.146Z,70.15
2019-05-20T04:36:28.660Z,70.03
2019-05-20T04:38:56.798Z,69.70
2019-05-20T04:41:24.227Z,69.64
2019-05-20T04:43:50.618Z,69.61
2019-05-20T04:46:16.783Z,69.29
2019-05-20T04:48:43.088Z,69.27
2019-05-20T04:51:09.378Z,69.25
2019-05-20T04:53:35.546Z,69.20
2019-05-20T04:56:01.707Z,69.06
2019-05-20T04:58:29.027Z,69.22
2019-05-20T05:00:56.007Z,69.30
2019-05-20T05:03:22.272Z,69.28
2019-05-20T05:05:49.138Z,69.18
2019-05-20T05:08:16.535Z,69.06
2019-05-20T05:10:42.738Z,68.93
2019-05-20T05:13:09.154Z,69.06
2019-05-20T05:15:35.668Z,69.74
2019-05-20T05:18:02.123Z,70.11
2019-05-20T05:20:28.539Z,69.77
2019-05-20T05:22:54.649Z,69.52
2019-05-20T05:25:20.882Z,69.54
2019-05-20T05:27:46.979Z,69.52
2019-05-20T05:30:13.541Z,69.00
2019-05-20T05:32:42.538Z,68.75
2019-05-20T05:35:15.972Z,68.35
2019-05-20T05:37:42.196Z,68.15
2019-05-20T05:40:09.917Z,67.91
2019-05-20T05:42:36.194Z,67.46
2019-05-20T05:45:05.080Z,67.31
2019-05-20T05:47:31.375Z,66.76
2019-05-20T05:49:57.760Z,66.73
2019-05-20T05:52:24.087Z,66.90
2019-05-20T05:54:50.365Z,66.79
2019-05-20T05:57:17.603Z,66.54
2019-05-20T05:59:43.825Z,66.13
2019-05-20T06:02:10.066Z,65.78
2019-05-20T06:04:36.194Z,65.67
2019-05-20T06:07:02.413Z,65.79
2019-05-20T06:09:28.617Z,65.82
2019-05-20T06:11:54.917Z,65.99
2019-05-20T06:14:21.181Z,66.05
2019-05-20T06:16:47.453Z,65.16
2019-05-20T06:19:13.827Z,65.17
2019-05-20T06:21:40.113Z,65.28
2019-05-20T06:24:06.426Z,65.20
2019-05-20T06:26:32.723Z,64.92
2019-05-20T06:29:02.581Z,64.80
2019-05-20T06:31:27.167Z,64.96
2019-05-20T06:33:53.465Z,64.78
2019-05-20T06:36:26.823Z,64.60
2019-05-20T06:38:50.098Z,64.84
2019-05-20T06:41:16.552Z,64.86
2019-05-20T06:43:42.998Z,64.76
2019-05-20T06:46:09.285Z,64.81
2019-05-20T06:48:35.548Z,64.62
2019-05-20T06:51:01.928Z,64.56
2019-05-20T06:53:28.166Z,64.28
2019-05-20T06:55:54.436Z,64.46
2019-05-20T06:58:20.655Z,64.45
2019-05-20T07:00:47.070Z,64.57
2019-05-20T07:03:13.177Z,64.18
2019-05-20T07:05:39.526Z,63.51
2019-05-20T07:08:05.743Z,63.58
2019-05-20T07:10:32.265Z,63.30
2019-05-20T07:12:58.570Z,63.20
2019-05-20T07:15:24.851Z,62.95
2019-05-20T07:17:51.118Z,62.48
2019-05-20T07:20:17.404Z,62.60
2019-05-20T07:22:55.148Z,62.45
2019-05-20T07:25:12.020Z,62.68
2019-05-20T07:27:38.323Z,62.15
2019-05-20T07:30:05.496Z,62.21
2019-05-20T07:32:31.863Z,61.85
2019-05-20T07:34:57.972Z,61.67
2019-05-20T07:37:24.425Z,61.41
2019-05-20T07:39:50.572Z,61.70
2019-05-20T07:42:16.866Z,61.68
2019-05-20T07:44:44.320Z,61.78
2019-05-20T07:47:11.364Z,61.46
2019-05-20T07:49:38.049Z,61.37
2019-05-20T07:52:04.695Z,61.37
2019-05-20T07:54:31.242Z,61.16
2019-05-20T07:57:01.369Z,61.21
2019-05-20T07:59:28.475Z,60.77
2019-05-20T08:01:54.803Z,61.24
2019-05-20T08:04:21.127Z,61.36
2019-05-20T08:06:47.401Z,61.14
2019-05-20T08:09:13.692Z,61.10
2019-05-20T08:11:40.006Z,61.03
2019-05-20T08:14:06.412Z,61.03
2019-05-20T08:16:32.908Z,61.15
2019-05-20T08:18:59.087Z,60.89
2019-05-20T08:21:25.533Z,60.83
2019-05-20T08:23:51.765Z,61.10
2019-05-20T08:26:18.209Z,60.90
2019-05-20T08:28:44.424Z,60.61
2019-05-20T08:31:10.754Z,60.50
2019-05-20T08:33:37.026Z,60.22
2019-05-20T08:36:03.504Z,60.09
2019-05-20T08:38:29.755Z,59.71
2019-05-20T08:40:56.004Z,59.44
2019-05-20T08:43:22.214Z,59.62
2019-05-20T08:45:48.472Z,59.36
2019-05-20T08:48:14.752Z,58.95
2019-05-20T08:50:41.078Z,58.77
2019-05-20T08:53:07.278Z,59.77
2019-05-20T08:55:33.534Z,59.58
2019-05-20T08:57:59.719Z,59.70
2019-05-20T09:00:26.312Z,59.86
2019-05-20T09:02:52.448Z,60.25
2019-05-20T09:05:18.721Z,60.26
2019-05-20T09:08:01.108Z,60.51
2019-05-20T09:10:13.987Z,60.65
2019-05-20T09:12:40.167Z,60.78
2019-05-20T09:15:07.139Z,60.49
2019-05-20T09:17:33.512Z,60.54
2019-05-20T09:19:59.679Z,60.77
2019-05-20T09:22:25.851Z,60.97
2019-05-20T09:24:52.070Z,60.71
2019-05-20T09:27:18.706Z,60.44
2019-05-20T09:29:45.257Z,60.84
2019-05-20T09:32:11.527Z,61.44
2019-05-20T09:34:37.980Z,61.54
2019-05-20T09:37:04.296Z,61.09
2019-05-20T09:39:30.604Z,61.37
2019-05-20T09:41:56.973Z,61.53
2019-05-20T09:44:23.274Z,61.92
2019-05-20T09:46:49.439Z,62.25
2019-05-20T09:49:15.838Z,62.32
2019-05-20T09:51:42.156Z,62.30
2019-05-20T09:54:08.372Z,62.65
2019-05-20T09:56:34.494Z,62.76
2019-05-20T09:59:00.839Z,62.55
2019-05-20T10:01:26.967Z,62.43
2019-05-20T10:03:53.180Z,62.44
2019-05-20T10:06:19.481Z,62.69
2019-05-20T10:08:45.742Z,63.24
2019-05-20T10:11:11.981Z,63.47
2019-05-20T10:13:38.242Z,63.23
2019-05-20T10:16:04.601Z,63.38
2019-05-20T10:18:37.552Z,63.23
2019-05-20T10:20:58.858Z,63.36
2019-05-20T10:23:26.162Z,64.01
2019-05-20T10:25:52.578Z,64.00
2019-05-20T10:28:18.982Z,64.56
2019-05-20T10:30:45.326Z,64.36
2019-05-20T10:33:11.458Z,64.67
2019-05-20T10:35:37.681Z,64.72
2019-05-20T10:38:03.897Z,64.57
2019-05-20T10:40:30.372Z,64.82
2019-05-20T10:42:56.682Z,65.21
2019-05-20T10:45:22.927Z,65.06
2019-05-20T10:47:49.041Z,64.76
2019-05-20T10:50:15.361Z,65.09
2019-05-20T10:52:41.544Z,65.23
2019-05-20T10:55:08.005Z,65.13
2019-05-20T10:57:34.377Z,65.38
2019-05-20T11:00:00.580Z,64.91
2019-05-20T11:02:31.190Z,65.29
2019-05-20T11:04:55.278Z,65.50
2019-05-20T11:07:22.718Z,65.56
2019-05-20T11:09:49.014Z,66.30
2019-05-20T11:12:15.294Z,66.42
2019-05-20T11:14:41.454Z,67.09
2019-05-20T11:17:07.703Z,67.38
2019-05-20T11:19:33.812Z,68.13
2019-05-20T11:22:00.179Z,67.91
2019-05-20T11:24:26.318Z,68.15
2019-05-20T11:26:52.478Z,68.39
2019-05-20T11:29:18.977Z,68.59
2019-05-20T11:31:45.460Z,68.69
2019-05-20T11:34:11.726Z,69.14
2019-05-20T11:36:37.919Z,69.14
2019-05-20T11:39:07.381Z,68.98
2019-05-20T11:41:52.633Z,68.99
2019-05-20T11:44:02.353Z,69.32
2019-05-20T11:46:28.641Z,69.50
2019-05-20T11:48:54.906Z,69.78
2019-05-20T11:51:21.009Z,69.22
2019-05-20T11:53:48.205Z,69.51
2019-05-20T11:56:14.509Z,69.51
2019-05-20T11:58:40.809Z,69.46
2019-05-20T12:01:07.089Z,69.57
2019-05-20T12:03:33.315Z,69.18
2019-05-20T12:05:59.453Z,69.18
2019-05-20T12:08:25.669Z,69.80
2019-05-20T12:10:51.887Z,69.80
2019-05-20T12:13:18.162Z,69.62
2019-05-20T12:15:44.338Z,69.64
2019-05-20T12:18:10.599Z,70.42
2019-05-20T12:20:36.954Z,70.42
2019-05-20T12:23:03.226Z,70.68
2019-05-20T12:25:29.479Z,70.68
2019-05-20T12:27:55.616Z,71.01
2019-05-20T12:30:22.083Z,71.00
2019-05-20T12:32:48.242Z,70.86
2019-05-20T12:35:15.768Z,70.59
2019-05-20T12:37:45.534Z,70.59
2019-05-20T12:40:10.455Z,70.84
2019-05-20T12:42:36.879Z,71.16
2019-05-20T12:45:07.475Z,71.02
2019-05-20T12:47:34.305Z,71.60
2019-05-20T12:50:00.536Z,71.60
2019-05-20T12:52:26.658Z,71.35
2019-05-20T12:55:06.970Z,71.03
2019-05-20T12:57:21.193Z,71.47
2019-05-20T12:59:47.591Z,71.84
2019-05-20T13:02:17.240Z,71.16
2019-05-20T13:04:42.271Z,70.82
2019-05-20T13:07:08.547Z,70.65
2019-05-20T13:09:34.782Z,70.56
2019-05-20T13:12:01.288Z,70.50
2019-05-20T13:14:27.538Z,71.20
2019-05-20T13:16:53.655Z,71.54
2019-05-20T13:19:19.917Z,71.42
2019-05-20T13:21:46.022Z,71.34
2019-05-20T13:24:12.252Z,71.17
2019-05-20T13:26:38.359Z,70.94
2019-05-20T13:29:04.741Z,71.02
2019-05-20T13:31:30.890Z,71.06
2019-05-20T13:33:57.108Z,71.03
2019-05-20T13:36:23.270Z,70.91
2019-05-20T13:38:49.497Z,71.24
2019-05-20T13:41:15.671Z,71.49
2019-05-20T13:43:41.944Z,71.49
2019-05-20T13:46:08.230Z,71.63
2019-05-20T13:48:34.539Z,71.51
2019-05-20T13:51:00.793Z,71.10
2019-05-20T13:53:27.058Z,70.66
2019-05-20T13:55:53.154Z,70.06
2019-05-20T13:58:19.481Z,68.39
2019-05-20T14:00:45.654Z,66.15
2019-05-20T14:03:11.992Z,65.36
2019-05-20T14:05:39.200Z,64.90
2019-05-20T14:08:05.739Z,64.71
2019-05-20T14:10:31.859Z,64.78
2019-05-20T14:12:58.858Z,64.53
2019-05-20T14:15:25.135Z,65.16
2019-05-20T14:17:51.549Z,65.38
2019-05-20T14:20:18.153Z,65.59
2019-05-20T14:22:44.509Z,65.38
2019-05-20T14:25:11.240Z,65.33
2019-05-20T14:27:37.505Z,65.40
2019-05-20T14:30:07.825Z,65.47
2019-05-20T14:32:34.413Z,65.71
2019-05-20T14:35:00.945Z,65.91
2019-05-20T14:37:27.260Z,66.34
2019-05-20T14:39:53.846Z,67.08
2019-05-20T14:42:20.060Z,66.85
2019-05-20T14:44:46.213Z,67.19
2019-05-20T14:47:12.418Z,66.98
2019-05-20T14:49:38.584Z,66.96
2019-05-20T14:52:04.811Z,66.42
2019-05-20T14:54:30.981Z,66.16
2019-05-20T14:56:57.281Z,65.69
2019-05-20T14:59:23.377Z,65.80
2019-05-20T15:01:49.597Z,65.91
2019-05-20T15:04:15.735Z,65.89
2019-05-20T15:06:41.957Z,65.63
2019-05-20T15:09:08.118Z,65.95
2019-05-20T15:11:38.149Z,66.01
2019-05-20T15:14:03.550Z,66.04
2019-05-20T15:16:30.409Z,65.91
2019-05-20T15:18:56.537Z,66.31
2019-05-20T15:21:28.284Z,66.29
2019-05-20T15:23:50.780Z,66.62
2019-05-20T15:26:17.069Z,66.77
2019-05-20T15:28:43.231Z,67.13
2019-05-20T15:31:09.486Z,67.72
2019-05-20T15:33:35.603Z,68.07
2019-05-20T15:36:01.909Z,68.27
2019-05-20T15:38:28.176Z,68.44
2019-05-20T15:40:54.506Z,68.44
2019-05-20T15:43:20.715Z,68.53
2019-05-20T15:45:46.940Z,68.55
2019-05-20T15:48:13.403Z,68.89
2019-05-20T15:50:39.806Z,69.03
2019-05-20T15:53:10.995Z,68.97
2019-05-20T15:55:34.241Z,68.97
2019-05-20T15:58:00.432Z,69.04
2019-05-20T16:00:26.746Z,69.10
2019-05-20T16:02:52.982Z,69.05
2019-05-20T16:05:19.253Z,69.47
2019-05-20T16:07:45.463Z,69.88
2019-05-20T16:10:11.908Z,70.01
2019-05-20T16:12:38.244Z,69.89
2019-05-20T16:15:05.688Z,69.08
2019-05-20T16:17:32.102Z,68.33
2019-05-20T16:19:58.463Z,68.28
2019-05-20T16:22:24.634Z,67.86
2019-05-20T16:24:50.990Z,67.01
2019-05-20T16:27:17.299Z,66.58
2019-05-20T16:29:43.726Z,66.45
2019-05-20T16:32:09.835Z,66.87
2019-05-20T16:34:36.244Z,66.70
2019-05-20T16:37:02.557Z,66.59
2019-05-20T16:39:30.909Z,66.67
2019-05-20T16:41:57.102Z,67.10
2019-05-20T16:44:23.434Z,67.10
2019-05-20T16:46:49.788Z,66.86
2019-05-20T16:49:15.903Z,66.80
2019-05-20T16:51:42.145Z,65.07
2019-05-20T16:54:08.359Z,65.27
2019-05-20T16:56:35.576Z,65.27
2019-05-20T16:59:01.849Z,65.70
2019-05-20T17:01:28.104Z,66.04
2019-05-20T17:03:54.399Z,66.53
2019-05-20T17:06:20.709Z,65.81
2019-05-20T17:08:47.003Z,66.71
2019-05-20T17:11:13.337Z,67.15
2019-05-20T17:13:39.559Z,66.76
2019-05-20T17:16:05.659Z,66.85
2019-05-20T17:18:31.891Z,66.69
2019-05-20T17:20:58.019Z,66.72
2019-05-20T17:23:24.237Z,66.99
2019-05-20T17:25:50.910Z,67.14
2019-05-20T17:28:17.344Z,67.31
2019-05-20T17:30:45.986Z,67.53
2019-05-20T17:33:12.460Z,67.59
2019-05-20T17:35:38.769Z,67.49
2019-05-20T17:38:05.062Z,67.83
2019-05-20T17:40:31.363Z,67.98
2019-05-20T17:42:59.046Z,67.99
2019-05-20T17:45:25.547Z,68.04
2019-05-20T17:47:51.624Z,68.26
2019-05-20T17:50:18.177Z,68.59
2019-05-20T17:52:44.493Z,69.18
2019-05-20T17:55:11.021Z,69.67
2019-05-20T17:57:37.261Z,70.13
2019-05-20T18:00:09.742Z,70.55
2019-05-20T18:02:35.846Z,70.98
2019-05-20T18:05:04.185Z,71.26
2019-05-20T18:07:30.291Z,71.52
2019-05-20T18:09:56.511Z,71.80
2019-05-20T18:12:23.607Z,72.18
2019-05-20T18:14:52.036Z,72.50
2019-05-20T18:17:18.251Z,72.60
2019-05-20T18:19:45.452Z,72.81
2019-05-20T18:22:11.704Z,72.97
2019-05-20T18:24:37.874Z,72.98
2019-05-20T18:27:04.309Z,73.13
2019-05-20T18:29:30.478Z,73.24
2019-05-20T18:31:56.746Z,73.14
2019-05-20T18:34:22.909Z,73.16
2019-05-20T18:36:49.225Z,73.81
2019-05-20T18:39:15.417Z,74.42
2019-05-20T18:41:41.718Z,75.20
2019-05-20T18:44:07.839Z,75.03
2019-05-20T18:46:34.075Z,74.93
2019-05-20T18:49:00.280Z,74.87
2019-05-20T18:51:26.380Z,74.67
2019-05-20T18:53:52.641Z,74.68
2019-05-20T18:56:18.840Z,75.04
2019-05-20T18:58:45.075Z,74.79
2019-05-20T19:01:11.324Z,74.96
2019-05-20T19:03:37.672Z,75.25
2019-05-20T19:06:04.050Z,75.24
2019-05-20T19:08:30.307Z,75.31
2019-05-20T19:10:58.585Z,75.42
2019-05-20T19:13:24.673Z,75.42
2019-05-20T19:15:51.016Z,75.22
2019-05-20T19:18:17.335Z,75.33
2019-05-20T19:20:43.712Z,75.34
2019-05-20T19:23:09.935Z,75.61
2019-05-20T19:25:38.053Z,75.69
2019-05-20T19:28:04.373Z,75.38
2019-05-20T19:30:30.679Z,75.62
2019-05-20T19:32:57.615Z,75.49
2019-05-20T19:35:24.606Z,75.28
2019-05-20T19:37:50.944Z,75.11
2019-05-20T19:40:17.480Z,74.96
2019-05-20T19:42:43.679Z,74.83
2019-05-20T19:45:10.223Z,74.88
2019-05-20T19:47:36.417Z,74.91
2019-05-20T19:50:05.383Z,74.74
2019-05-20T19:52:31.543Z,74.80
2019-05-20T19:54:57.786Z,74.72
2019-05-20T19:57:24.117Z,74.75
2019-05-20T19:59:50.369Z,74.56
2019-05-20T20:02:17.929Z,74.57
2019-05-20T20:04:44.336Z,74.76
2019-05-20T20:07:10.711Z,74.82
2019-05-20T20:09:36.980Z,74.82
2019-05-20T20:12:03.349Z,74.98
2019-05-20T20:14:29.757Z,75.15
